sensor_id;sensor_type;location;lat;lon;timestamp;P1;durP1;ratioP1;P2;durP2;ratioP2
74269;SDS011;62754;48.252;11.654;2023-06-22T00:01:43;10.45;;;4.05;;
74269;SDS011;62754;48.252;11.654;2023-06-22T00:04:11;7.68;;;3.38;;
74269;SDS011;62754;48.252;11.654;2023-06-22T00:06:37;6.82;;;3.60;;
74269;SDS011;62754;48.252;11.654;2023-06-22T00:09:07;7.35;;;4.13;;
74269;SDS011;62754;48.252;11.654;2023-06-22T00:11:35;10.10;;;4.38;;
74269;SDS011;62754;48.252;11.654;2023-06-22T00:14:04;6.32;;;3.83;;
74269;SDS011;62754;48.252;11.654;2023-06-22T00:16:34;8.45;;;3.65;;
74269;SDS011;62754;48.252;11.654;2023-06-22T00:19:02;8.55;;;3.92;;
74269;SDS011;62754;48.252;11.654;2023-06-22T00:21:30;6.72;;;3.58;;
74269;SDS011;62754;48.252;11.654;2023-06-22T00:23:55;7.80;;;3.92;;
74269;SDS011;62754;48.252;11.654;2023-06-22T00:26:21;7.80;;;3.67;;
74269;SDS011;62754;48.252;11.654;2023-06-22T00:28:47;7.90;;;3.53;;
74269;SDS011;62754;48.252;11.654;2023-06-22T00:31:13;9.20;;;4.55;;
74269;SDS011;62754;48.252;11.654;2023-06-22T00:33:41;7.65;;;3.85;;
74269;SDS011;62754;48.252;11.654;2023-06-22T00:36:09;6.68;;;3.97;;
74269;SDS011;62754;48.252;11.654;2023-06-22T00:38:37;7.88;;;3.63;;
74269;SDS011;62754;48.252;11.654;2023-06-22T00:41:05;6.22;;;3.33;;
74269;SDS011;62754;48.252;11.654;2023-06-22T00:43:33;6.63;;;3.58;;
74269;SDS011;62754;48.252;11.654;2023-06-22T00:46:01;8.63;;;3.45;;
74269;SDS011;62754;48.252;11.654;2023-06-22T00:48:32;8.80;;;3.50;;
74269;SDS011;62754;48.252;11.654;2023-06-22T00:50:58;9.68;;;3.83;;
74269;SDS011;62754;48.252;11.654;2023-06-22T00:53:24;10.10;;;4.18;;
74269;SDS011;62754;48.252;11.654;2023-06-22T00:55:50;6.60;;;3.20;;
74269;SDS011;62754;48.252;11.654;2023-06-22T00:58:16;9.30;;;3.60;;
74269;SDS011;62754;48.252;11.654;2023-06-22T01:00:46;6.63;;;3.63;;
74269;SDS011;62754;48.252;11.654;2023-06-22T01:03:11;6.03;;;3.78;;
74269;SDS011;62754;48.252;11.654;2023-06-22T01:05:40;8.20;;;3.63;;
74269;SDS011;62754;48.252;11.654;2023-06-22T01:13:45;6.78;;;3.25;;
74269;SDS011;62754;48.252;11.654;2023-06-22T01:16:23;6.18;;;3.53;;
74269;SDS011;62754;48.252;11.654;2023-06-22T01:18:52;10.98;;;4.05;;
74269;SDS011;62754;48.252;11.654;2023-06-22T01:21:28;8.07;;;3.53;;
74269;SDS011;62754;48.252;11.654;2023-06-22T01:29:04;7.25;;;3.63;;
74269;SDS011;62754;48.252;11.654;2023-06-22T01:31:33;9.45;;;3.28;;
74269;SDS011;62754;48.252;11.654;2023-06-22T01:34:01;8.30;;;3.95;;
74269;SDS011;62754;48.252;11.654;2023-06-22T01:36:29;8.55;;;3.60;;
74269;SDS011;62754;48.252;11.654;2023-06-22T01:38:56;8.68;;;4.03;;
74269;SDS011;62754;48.252;11.654;2023-06-22T01:41:28;8.23;;;3.70;;
74269;SDS011;62754;48.252;11.654;2023-06-22T01:43:56;6.78;;;3.58;;
74269;SDS011;62754;48.252;11.654;2023-06-22T01:46:25;8.45;;;4.20;;
74269;SDS011;62754;48.252;11.654;2023-06-22T01:48:50;10.05;;;4.38;;
74269;SDS011;62754;48.252;11.654;2023-06-22T01:51:19;7.55;;;3.75;;
74269;SDS011;62754;48.252;11.654;2023-06-22T01:53:47;7.93;;;4.07;;
74269;SDS011;62754;48.252;11.654;2023-06-22T01:56:16;6.15;;;3.47;;
74269;SDS011;62754;48.252;11.654;2023-06-22T01:58:54;9.13;;;4.03;;
74269;SDS011;62754;48.252;11.654;2023-06-22T02:01:31;10.10;;;4.20;;
74269;SDS011;62754;48.252;11.654;2023-06-22T02:04:06;12.27;;;4.05;;
74269;SDS011;62754;48.252;11.654;2023-06-22T02:06:42;9.75;;;4.38;;
74269;SDS011;62754;48.252;11.654;2023-06-22T02:09:15;7.13;;;3.72;;
74269;SDS011;62754;48.252;11.654;2023-06-22T02:11:42;8.23;;;4.10;;
74269;SDS011;62754;48.252;11.654;2023-06-22T02:14:15;9.57;;;4.13;;
74269;SDS011;62754;48.252;11.654;2023-06-22T02:16:44;7.90;;;4.13;;
74269;SDS011;62754;48.252;11.654;2023-06-22T02:19:10;8.45;;;4.13;;
74269;SDS011;62754;48.252;11.654;2023-06-22T02:21:40;10.07;;;4.25;;
74269;SDS011;62754;48.252;11.654;2023-06-22T02:24:11;8.52;;;3.83;;
74269;SDS011;62754;48.252;11.654;2023-06-22T02:26:39;8.63;;;4.25;;
74269;SDS011;62754;48.252;11.654;2023-06-22T02:29:05;7.45;;;3.85;;
74269;SDS011;62754;48.252;11.654;2023-06-22T02:31:32;9.40;;;4.22;;
74269;SDS011;62754;48.252;11.654;2023-06-22T02:33:58;8.80;;;4.55;;
74269;SDS011;62754;48.252;11.654;2023-06-22T02:36:25;10.15;;;4.75;;
74269;SDS011;62754;48.252;11.654;2023-06-22T02:38:53;7.07;;;3.80;;
74269;SDS011;62754;48.252;11.654;2023-06-22T02:41:20;10.43;;;4.15;;
74269;SDS011;62754;48.252;11.654;2023-06-22T02:43:48;8.45;;;4.35;;
74269;SDS011;62754;48.252;11.654;2023-06-22T02:46:16;8.18;;;4.20;;
74269;SDS011;62754;48.252;11.654;2023-06-22T02:48:44;7.90;;;4.22;;
74269;SDS011;62754;48.252;11.654;2023-06-22T02:51:10;8.80;;;4.25;;
74269;SDS011;62754;48.252;11.654;2023-06-22T02:53:36;9.85;;;4.40;;
74269;SDS011;62754;48.252;11.654;2023-06-22T02:56:02;10.48;;;4.50;;
74269;SDS011;62754;48.252;11.654;2023-06-22T02:58:28;8.38;;;4.15;;
74269;SDS011;62754;48.252;11.654;2023-06-22T03:00:56;8.60;;;3.67;;
74269;SDS011;62754;48.252;11.654;2023-06-22T03:03:24;10.55;;;4.07;;
74269;SDS011;62754;48.252;11.654;2023-06-22T03:05:52;8.13;;;4.13;;
74269;SDS011;62754;48.252;11.654;2023-06-22T03:08:22;11.73;;;4.60;;
74269;SDS011;62754;48.252;11.654;2023-06-22T03:10:51;11.70;;;4.10;;
74269;SDS011;62754;48.252;11.654;2023-06-22T03:13:16;9.15;;;4.25;;
74269;SDS011;62754;48.252;11.654;2023-06-22T03:15:42;8.98;;;4.50;;
74269;SDS011;62754;48.252;11.654;2023-06-22T03:18:08;7.28;;;4.28;;
74269;SDS011;62754;48.252;11.654;2023-06-22T03:20:38;8.93;;;4.22;;
74269;SDS011;62754;48.252;11.654;2023-06-22T03:23:06;9.90;;;4.07;;
74269;SDS011;62754;48.252;11.654;2023-06-22T03:25:37;9.05;;;4.13;;
74269;SDS011;62754;48.252;11.654;2023-06-22T03:28:02;9.52;;;4.30;;
74269;SDS011;62754;48.252;11.654;2023-06-22T03:30:33;10.63;;;4.35;;
74269;SDS011;62754;48.252;11.654;2023-06-22T03:33:01;7.40;;;4.05;;
74269;SDS011;62754;48.252;11.654;2023-06-22T03:35:27;9.57;;;3.95;;
74269;SDS011;62754;48.252;11.654;2023-06-22T03:37:53;12.20;;;4.47;;
74269;SDS011;62754;48.252;11.654;2023-06-22T03:40:18;6.93;;;4.13;;
74269;SDS011;62754;48.252;11.654;2023-06-22T03:42:45;12.90;;;4.80;;
74269;SDS011;62754;48.252;11.654;2023-06-22T03:45:13;9.07;;;4.30;;
74269;SDS011;62754;48.252;11.654;2023-06-22T03:47:41;9.18;;;4.85;;
74269;SDS011;62754;48.252;11.654;2023-06-22T03:50:07;9.52;;;4.68;;
74269;SDS011;62754;48.252;11.654;2023-06-22T03:52:33;8.80;;;4.57;;
74269;SDS011;62754;48.252;11.654;2023-06-22T03:54:59;8.80;;;4.20;;
74269;SDS011;62754;48.252;11.654;2023-06-22T03:57:29;9.23;;;4.65;;
74269;SDS011;62754;48.252;11.654;2023-06-22T03:59:56;9.95;;;5.13;;
74269;SDS011;62754;48.252;11.654;2023-06-22T04:02:24;10.63;;;4.47;;
74269;SDS011;62754;48.252;11.654;2023-06-22T04:07:16;9.98;;;4.20;;
74269;SDS011;62754;48.252;11.654;2023-06-22T04:09:44;10.00;;;4.53;;
74269;SDS011;62754;48.252;11.654;2023-06-22T04:12:10;9.95;;;4.30;;
74269;SDS011;62754;48.252;11.654;2023-06-22T04:14:36;11.25;;;4.80;;
74269;SDS011;62754;48.252;11.654;2023-06-22T04:17:01;11.20;;;4.38;;
74269;SDS011;62754;48.252;11.654;2023-06-22T04:19:30;8.25;;;4.80;;
74269;SDS011;62754;48.252;11.654;2023-06-22T04:21:58;8.63;;;4.53;;
74269;SDS011;62754;48.252;11.654;2023-06-22T04:24:24;9.20;;;4.80;;
74269;SDS011;62754;48.252;11.654;2023-06-22T04:26:52;8.68;;;4.35;;
74269;SDS011;62754;48.252;11.654;2023-06-22T04:29:20;9.00;;;4.72;;
74269;SDS011;62754;48.252;11.654;2023-06-22T04:31:48;8.00;;;4.25;;
74269;SDS011;62754;48.252;11.654;2023-06-22T04:34:19;9.07;;;4.57;;
74269;SDS011;62754;48.252;11.654;2023-06-22T04:36:44;9.20;;;5.10;;
74269;SDS011;62754;48.252;11.654;2023-06-22T04:39:12;9.65;;;4.80;;
74269;SDS011;62754;48.252;11.654;2023-06-22T04:41:41;9.05;;;4.63;;
74269;SDS011;62754;48.252;11.654;2023-06-22T04:44:14;10.07;;;4.50;;
74269;SDS011;62754;48.252;11.654;2023-06-22T04:46:40;9.05;;;4.95;;
74269;SDS011;62754;48.252;11.654;2023-06-22T04:49:11;8.50;;;4.53;;
74269;SDS011;62754;48.252;11.654;2023-06-22T04:51:39;9.70;;;4.57;;
74269;SDS011;62754;48.252;11.654;2023-06-22T04:54:07;14.45;;;5.20;;
74269;SDS011;62754;48.252;11.654;2023-06-22T04:56:33;8.95;;;4.88;;
74269;SDS011;62754;48.252;11.654;2023-06-22T04:59:02;9.60;;;4.40;;
74269;SDS011;62754;48.252;11.654;2023-06-22T05:01:28;9.02;;;4.30;;
74269;SDS011;62754;48.252;11.654;2023-06-22T05:03:57;9.82;;;4.65;;
74269;SDS011;62754;48.252;11.654;2023-06-22T05:06:23;9.43;;;4.53;;
74269;SDS011;62754;48.252;11.654;2023-06-22T05:08:52;8.73;;;5.03;;
74269;SDS011;62754;48.252;11.654;2023-06-22T05:11:20;9.48;;;4.60;;
74269;SDS011;62754;48.252;11.654;2023-06-22T05:13:48;8.90;;;4.93;;
74269;SDS011;62754;48.252;11.654;2023-06-22T05:16:14;11.38;;;4.80;;
74269;SDS011;62754;48.252;11.654;2023-06-22T05:18:42;9.35;;;5.47;;
74269;SDS011;62754;48.252;11.654;2023-06-22T05:21:07;11.60;;;4.70;;
74269;SDS011;62754;48.252;11.654;2023-06-22T05:23:33;11.25;;;4.95;;
74269;SDS011;62754;48.252;11.654;2023-06-22T05:25:59;10.20;;;4.63;;
74269;SDS011;62754;48.252;11.654;2023-06-22T05:28:25;15.20;;;5.60;;
74269;SDS011;62754;48.252;11.654;2023-06-22T05:30:51;8.85;;;4.72;;
74269;SDS011;62754;48.252;11.654;2023-06-22T05:33:16;9.55;;;5.50;;
74269;SDS011;62754;48.252;11.654;2023-06-22T05:35:42;13.75;;;4.93;;
74269;SDS011;62754;48.252;11.654;2023-06-22T05:38:08;10.35;;;4.72;;
74269;SDS011;62754;48.252;11.654;2023-06-22T05:40:34;9.68;;;4.47;;
74269;SDS011;62754;48.252;11.654;2023-06-22T05:42:59;11.25;;;4.32;;
74269;SDS011;62754;48.252;11.654;2023-06-22T05:45:25;10.23;;;4.40;;
74269;SDS011;62754;48.252;11.654;2023-06-22T05:47:54;12.50;;;4.95;;
74269;SDS011;62754;48.252;11.654;2023-06-22T05:50:22;8.68;;;4.75;;
74269;SDS011;62754;48.252;11.654;2023-06-22T05:52:48;8.73;;;4.40;;
74269;SDS011;62754;48.252;11.654;2023-06-22T05:55:16;9.25;;;4.57;;
74269;SDS011;62754;48.252;11.654;2023-06-22T05:57:44;8.10;;;4.40;;
74269;SDS011;62754;48.252;11.654;2023-06-22T06:00:10;11.77;;;4.55;;
74269;SDS011;62754;48.252;11.654;2023-06-22T06:02:36;10.73;;;4.72;;
74269;SDS011;62754;48.252;11.654;2023-06-22T06:05:04;11.65;;;4.88;;
74269;SDS011;62754;48.252;11.654;2023-06-22T06:07:32;9.60;;;4.18;;
74269;SDS011;62754;48.252;11.654;2023-06-22T06:09:58;9.63;;;4.80;;
74269;SDS011;62754;48.252;11.654;2023-06-22T06:12:24;8.05;;;4.60;;
74269;SDS011;62754;48.252;11.654;2023-06-22T06:14:50;10.32;;;4.70;;
74269;SDS011;62754;48.252;11.654;2023-06-22T06:17:15;8.10;;;4.50;;
74269;SDS011;62754;48.252;11.654;2023-06-22T06:19:41;8.82;;;4.85;;
74269;SDS011;62754;48.252;11.654;2023-06-22T06:22:07;11.30;;;4.32;;
74269;SDS011;62754;48.252;11.654;2023-06-22T06:24:33;12.68;;;4.78;;
74269;SDS011;62754;48.252;11.654;2023-06-22T06:27:01;8.18;;;4.20;;
74269;SDS011;62754;48.252;11.654;2023-06-22T06:29:26;8.82;;;4.57;;
74269;SDS011;62754;48.252;11.654;2023-06-22T06:31:55;9.95;;;4.63;;
74269;SDS011;62754;48.252;11.654;2023-06-22T06:34:20;11.52;;;4.80;;
74269;SDS011;62754;48.252;11.654;2023-06-22T06:36:46;9.90;;;4.50;;
74269;SDS011;62754;48.252;11.654;2023-06-22T06:39:12;9.80;;;4.57;;
74269;SDS011;62754;48.252;11.654;2023-06-22T06:41:40;10.15;;;4.25;;
74269;SDS011;62754;48.252;11.654;2023-06-22T06:44:08;10.77;;;4.00;;
74269;SDS011;62754;48.252;11.654;2023-06-22T06:46:34;9.88;;;4.30;;
74269;SDS011;62754;48.252;11.654;2023-06-22T06:49:02;9.38;;;5.45;;
74269;SDS011;62754;48.252;11.654;2023-06-22T06:51:32;10.15;;;4.60;;
74269;SDS011;62754;48.252;11.654;2023-06-22T06:54:01;10.63;;;4.07;;
74269;SDS011;62754;48.252;11.654;2023-06-22T06:56:29;8.20;;;3.60;;
74269;SDS011;62754;48.252;11.654;2023-06-22T06:58:59;9.25;;;4.18;;
74269;SDS011;62754;48.252;11.654;2023-06-22T07:01:25;11.23;;;4.30;;
74269;SDS011;62754;48.252;11.654;2023-06-22T07:03:53;8.85;;;4.50;;
74269;SDS011;62754;48.252;11.654;2023-06-22T07:06:21;8.13;;;4.00;;
74269;SDS011;62754;48.252;11.654;2023-06-22T07:08:49;12.80;;;4.90;;
74269;SDS011;62754;48.252;11.654;2023-06-22T07:11:19;10.75;;;4.40;;
74269;SDS011;62754;48.252;11.654;2023-06-22T07:13:47;9.90;;;4.72;;
74269;SDS011;62754;48.252;11.654;2023-06-22T07:16:15;8.63;;;4.20;;
74269;SDS011;62754;48.252;11.654;2023-06-22T07:18:44;11.57;;;4.70;;
74269;SDS011;62754;48.252;11.654;2023-06-22T07:21:09;12.30;;;4.82;;
74269;SDS011;62754;48.252;11.654;2023-06-22T07:23:35;12.73;;;4.78;;
74269;SDS011;62754;48.252;11.654;2023-06-22T07:26:01;9.05;;;4.50;;
74269;SDS011;62754;48.252;11.654;2023-06-22T07:28:29;9.38;;;3.92;;
74269;SDS011;62754;48.252;11.654;2023-06-22T07:30:59;9.77;;;4.60;;
74269;SDS011;62754;48.252;11.654;2023-06-22T07:33:25;8.90;;;4.13;;
74269;SDS011;62754;48.252;11.654;2023-06-22T07:35:51;8.77;;;4.57;;
74269;SDS011;62754;48.252;11.654;2023-06-22T07:38:16;9.95;;;4.97;;
74269;SDS011;62754;48.252;11.654;2023-06-22T07:40:45;11.52;;;4.70;;
74269;SDS011;62754;48.252;11.654;2023-06-22T07:43:14;11.35;;;4.93;;
74269;SDS011;62754;48.252;11.654;2023-06-22T07:45:40;9.65;;;5.03;;
74269;SDS011;62754;48.252;11.654;2023-06-22T07:48:13;9.77;;;4.70;;
74269;SDS011;62754;48.252;11.654;2023-06-22T07:50:43;12.20;;;5.13;;
74269;SDS011;62754;48.252;11.654;2023-06-22T07:53:09;9.45;;;4.90;;
74269;SDS011;62754;48.252;11.654;2023-06-22T07:55:35;10.18;;;4.72;;
74269;SDS011;62754;48.252;11.654;2023-06-22T07:58:00;9.65;;;4.70;;
74269;SDS011;62754;48.252;11.654;2023-06-22T08:00:28;10.32;;;5.00;;
74269;SDS011;62754;48.252;11.654;2023-06-22T08:02:56;10.35;;;4.85;;
74269;SDS011;62754;48.252;11.654;2023-06-22T08:05:24;10.55;;;4.63;;
74269;SDS011;62754;48.252;11.654;2023-06-22T08:07:52;10.07;;;4.72;;
74269;SDS011;62754;48.252;11.654;2023-06-22T08:10:18;8.00;;;3.97;;
74269;SDS011;62754;48.252;11.654;2023-06-22T08:15:09;15.27;;;4.70;;
74269;SDS011;62754;48.252;11.654;2023-06-22T08:20:04;10.50;;;4.38;;
74269;SDS011;62754;48.252;11.654;2023-06-22T08:22:31;8.05;;;4.20;;
74269;SDS011;62754;48.252;11.654;2023-06-22T08:27:22;12.13;;;5.00;;
74269;SDS011;62754;48.252;11.654;2023-06-22T08:29:50;11.68;;;4.80;;
74269;SDS011;62754;48.252;11.654;2023-06-22T08:32:16;10.90;;;4.85;;
74269;SDS011;62754;48.252;11.654;2023-06-22T08:34:42;11.63;;;5.22;;
74269;SDS011;62754;48.252;11.654;2023-06-22T08:37:08;14.25;;;5.40;;
74269;SDS011;62754;48.252;11.654;2023-06-22T08:39:34;11.07;;;5.18;;
74269;SDS011;62754;48.252;11.654;2023-06-22T08:42:00;8.48;;;4.35;;
74269;SDS011;62754;48.252;11.654;2023-06-22T08:44:28;11.40;;;5.00;;
74269;SDS011;62754;48.252;11.654;2023-06-22T08:46:57;14.80;;;4.90;;
74269;SDS011;62754;48.252;11.654;2023-06-22T08:49:25;8.70;;;4.90;;
74269;SDS011;62754;48.252;11.654;2023-06-22T08:51:53;10.02;;;4.78;;
74269;SDS011;62754;48.252;11.654;2023-06-22T08:54:19;13.00;;;4.85;;
74269;SDS011;62754;48.252;11.654;2023-06-22T08:56:47;10.40;;;4.53;;
74269;SDS011;62754;48.252;11.654;2023-06-22T08:59:15;15.18;;;5.75;;
74269;SDS011;62754;48.252;11.654;2023-06-22T09:01:43;14.68;;;5.22;;
74269;SDS011;62754;48.252;11.654;2023-06-22T09:04:12;9.23;;;4.63;;
74269;SDS011;62754;48.252;11.654;2023-06-22T09:06:40;7.80;;;4.25;;
74269;SDS011;62754;48.252;11.654;2023-06-22T09:09:08;10.07;;;4.97;;
74269;SDS011;62754;48.252;11.654;2023-06-22T09:11:37;9.60;;;4.70;;
74269;SDS011;62754;48.252;11.654;2023-06-22T09:14:05;23.70;;;5.55;;
74269;SDS011;62754;48.252;11.654;2023-06-22T09:16:31;11.02;;;5.00;;
74269;SDS011;62754;48.252;11.654;2023-06-22T09:18:57;11.18;;;5.32;;
74269;SDS011;62754;48.252;11.654;2023-06-22T09:21:23;14.32;;;5.53;;
74269;SDS011;62754;48.252;11.654;2023-06-22T09:23:49;9.05;;;4.57;;
74269;SDS011;62754;48.252;11.654;2023-06-22T09:26:15;10.10;;;5.10;;
74269;SDS011;62754;48.252;11.654;2023-06-22T09:28:43;11.93;;;5.03;;
74269;SDS011;62754;48.252;11.654;2023-06-22T09:31:09;11.15;;;5.13;;
74269;SDS011;62754;48.252;11.654;2023-06-22T09:33:37;9.85;;;5.25;;
74269;SDS011;62754;48.252;11.654;2023-06-22T09:36:06;9.45;;;5.10;;
74269;SDS011;62754;48.252;11.654;2023-06-22T09:38:41;12.52;;;4.78;;
74269;SDS011;62754;48.252;11.654;2023-06-22T09:41:06;15.18;;;4.70;;
74269;SDS011;62754;48.252;11.654;2023-06-22T09:43:32;9.23;;;5.03;;
74269;SDS011;62754;48.252;11.654;2023-06-22T09:45:58;11.95;;;5.20;;
74269;SDS011;62754;48.252;11.654;2023-06-22T09:48:24;10.18;;;4.68;;
74269;SDS011;62754;48.252;11.654;2023-06-22T09:50:52;10.45;;;4.55;;
74269;SDS011;62754;48.252;11.654;2023-06-22T09:53:18;13.18;;;5.00;;
74269;SDS011;62754;48.252;11.654;2023-06-22T09:55:46;10.52;;;4.97;;
74269;SDS011;62754;48.252;11.654;2023-06-22T09:58:12;12.27;;;5.20;;
74269;SDS011;62754;48.252;11.654;2023-06-22T10:00:38;10.00;;;4.97;;
74269;SDS011;62754;48.252;11.654;2023-06-22T10:03:04;11.65;;;5.10;;
74269;SDS011;62754;48.252;11.654;2023-06-22T10:05:30;10.45;;;4.90;;
74269;SDS011;62754;48.252;11.654;2023-06-22T10:07:55;11.25;;;5.03;;
74269;SDS011;62754;48.252;11.654;2023-06-22T10:10:21;11.48;;;5.25;;
74269;SDS011;62754;48.252;11.654;2023-06-22T10:12:55;10.65;;;5.25;;
74269;SDS011;62754;48.252;11.654;2023-06-22T10:15:22;10.43;;;5.22;;
74269;SDS011;62754;48.252;11.654;2023-06-22T10:17:48;10.63;;;5.35;;
74269;SDS011;62754;48.252;11.654;2023-06-22T10:20:14;10.32;;;4.93;;
74269;SDS011;62754;48.252;11.654;2023-06-22T10:22:41;8.45;;;4.40;;
74269;SDS011;62754;48.252;11.654;2023-06-22T10:25:08;10.48;;;5.15;;
74269;SDS011;62754;48.252;11.654;2023-06-22T10:27:37;12.70;;;4.78;;
74269;SDS011;62754;48.252;11.654;2023-06-22T10:30:05;12.60;;;5.30;;
74269;SDS011;62754;48.252;11.654;2023-06-22T10:32:32;11.25;;;5.40;;
74269;SDS011;62754;48.252;11.654;2023-06-22T10:35:00;14.93;;;5.60;;
74269;SDS011;62754;48.252;11.654;2023-06-22T10:37:26;10.68;;;5.05;;
74269;SDS011;62754;48.252;11.654;2023-06-22T10:39:52;11.57;;;5.03;;
74269;SDS011;62754;48.252;11.654;2023-06-22T10:42:20;10.48;;;4.60;;
74269;SDS011;62754;48.252;11.654;2023-06-22T10:44:46;9.73;;;4.97;;
74269;SDS011;62754;48.252;11.654;2023-06-22T10:47:12;12.90;;;5.43;;
74269;SDS011;62754;48.252;11.654;2023-06-22T10:49:40;11.68;;;5.03;;
74269;SDS011;62754;48.252;11.654;2023-06-22T10:52:09;9.70;;;5.20;;
74269;SDS011;62754;48.252;11.654;2023-06-22T10:54:35;12.00;;;5.47;;
74269;SDS011;62754;48.252;11.654;2023-06-22T10:57:03;12.75;;;5.30;;
74269;SDS011;62754;48.252;11.654;2023-06-22T10:59:29;9.77;;;5.45;;
74269;SDS011;62754;48.252;11.654;2023-06-22T11:01:55;10.93;;;5.63;;
74269;SDS011;62754;48.252;11.654;2023-06-22T11:04:22;10.57;;;5.38;;
74269;SDS011;62754;48.252;11.654;2023-06-22T11:06:50;14.00;;;5.22;;
74269;SDS011;62754;48.252;11.654;2023-06-22T11:09:16;10.00;;;4.93;;
74269;SDS011;62754;48.252;11.654;2023-06-22T11:11:42;13.50;;;5.60;;
74269;SDS011;62754;48.252;11.654;2023-06-22T11:14:08;14.30;;;5.60;;
74269;SDS011;62754;48.252;11.654;2023-06-22T11:16:36;10.25;;;5.45;;
74269;SDS011;62754;48.252;11.654;2023-06-22T11:19:01;10.27;;;5.10;;
74269;SDS011;62754;48.252;11.654;2023-06-22T11:21:27;12.02;;;5.63;;
74269;SDS011;62754;48.252;11.654;2023-06-22T11:23:58;10.60;;;5.03;;
74269;SDS011;62754;48.252;11.654;2023-06-22T11:26:25;11.90;;;5.60;;
74269;SDS011;62754;48.252;11.654;2023-06-22T11:28:51;12.57;;;5.35;;
74269;SDS011;62754;48.252;11.654;2023-06-22T11:31:16;12.75;;;5.50;;
74269;SDS011;62754;48.252;11.654;2023-06-22T11:33:42;9.30;;;4.70;;
74269;SDS011;62754;48.252;11.654;2023-06-22T11:36:10;9.90;;;4.75;;
74269;SDS011;62754;48.252;11.654;2023-06-22T11:38:36;11.63;;;4.65;;
74269;SDS011;62754;48.252;11.654;2023-06-22T11:41:01;17.42;;;5.38;;
74269;SDS011;62754;48.252;11.654;2023-06-22T11:43:27;12.02;;;5.28;;
74269;SDS011;62754;48.252;11.654;2023-06-22T11:45:53;9.82;;;4.82;;
74269;SDS011;62754;48.252;11.654;2023-06-22T11:48:21;9.30;;;4.32;;
74269;SDS011;62754;48.252;11.654;2023-06-22T11:50:49;10.73;;;5.03;;
74269;SDS011;62754;48.252;11.654;2023-06-22T11:53:18;9.63;;;4.78;;
74269;SDS011;62754;48.252;11.654;2023-06-22T11:55:46;9.13;;;4.30;;
74269;SDS011;62754;48.252;11.654;2023-06-22T11:58:17;11.60;;;5.22;;
74269;SDS011;62754;48.252;11.654;2023-06-22T12:00:45;10.10;;;4.53;;
74269;SDS011;62754;48.252;11.654;2023-06-22T12:03:11;13.15;;;4.70;;
74269;SDS011;62754;48.252;11.654;2023-06-22T12:05:36;8.43;;;4.78;;
74269;SDS011;62754;48.252;11.654;2023-06-22T12:08:04;10.93;;;4.68;;
74269;SDS011;62754;48.252;11.654;2023-06-22T12:10:30;12.68;;;5.00;;
74269;SDS011;62754;48.252;11.654;2023-06-22T12:12:58;11.43;;;4.75;;
74269;SDS011;62754;48.252;11.654;2023-06-22T12:15:24;8.98;;;4.40;;
74269;SDS011;62754;48.252;11.654;2023-06-22T12:17:49;9.98;;;5.20;;
74269;SDS011;62754;48.252;11.654;2023-06-22T12:20:17;10.45;;;4.47;;
74269;SDS011;62754;48.252;11.654;2023-06-22T12:22:43;12.52;;;4.85;;
74269;SDS011;62754;48.252;11.654;2023-06-22T12:25:09;10.68;;;4.35;;
74269;SDS011;62754;48.252;11.654;2023-06-22T12:27:35;12.02;;;4.80;;
74269;SDS011;62754;48.252;11.654;2023-06-22T12:30:03;12.82;;;4.80;;
74269;SDS011;62754;48.252;11.654;2023-06-22T12:32:34;11.00;;;4.75;;
74269;SDS011;62754;48.252;11.654;2023-06-22T12:35:00;13.25;;;4.65;;
74269;SDS011;62754;48.252;11.654;2023-06-22T12:37:28;11.32;;;4.80;;
74269;SDS011;62754;48.252;11.654;2023-06-22T12:39:59;10.05;;;5.05;;
74269;SDS011;62754;48.252;11.654;2023-06-22T12:42:29;12.57;;;4.60;;
74269;SDS011;62754;48.252;11.654;2023-06-22T12:44:57;11.18;;;4.85;;
74269;SDS011;62754;48.252;11.654;2023-06-22T12:47:23;10.77;;;4.32;;
74269;SDS011;62754;48.252;11.654;2023-06-22T12:49:49;11.77;;;4.68;;
74269;SDS011;62754;48.252;11.654;2023-06-22T12:52:19;12.63;;;4.40;;
74269;SDS011;62754;48.252;11.654;2023-06-22T12:54:50;13.95;;;5.05;;
74269;SDS011;62754;48.252;11.654;2023-06-22T12:57:18;13.77;;;5.15;;
74269;SDS011;62754;48.252;11.654;2023-06-22T12:59:46;14.18;;;4.90;;
74269;SDS011;62754;48.252;11.654;2023-06-22T13:02:14;8.52;;;4.40;;
74269;SDS011;62754;48.252;11.654;2023-06-22T13:04:40;12.20;;;5.20;;
74269;SDS011;62754;48.252;11.654;2023-06-22T13:07:06;15.82;;;4.75;;
74269;SDS011;62754;48.252;11.654;2023-06-22T13:09:37;11.20;;;4.40;;
74269;SDS011;62754;48.252;11.654;2023-06-22T13:12:05;9.75;;;4.60;;
74269;SDS011;62754;48.252;11.654;2023-06-22T13:14:31;12.57;;;4.72;;
74269;SDS011;62754;48.252;11.654;2023-06-22T13:16:57;11.85;;;4.80;;
74269;SDS011;62754;48.252;11.654;2023-06-22T13:19:25;9.77;;;4.60;;
74269;SDS011;62754;48.252;11.654;2023-06-22T13:21:53;13.20;;;4.78;;
74269;SDS011;62754;48.252;11.654;2023-06-22T13:24:19;11.40;;;4.43;;
74269;SDS011;62754;48.252;11.654;2023-06-22T13:26:44;11.50;;;4.75;;
74269;SDS011;62754;48.252;11.654;2023-06-22T13:29:13;8.25;;;4.13;;
74269;SDS011;62754;48.252;11.654;2023-06-22T13:31:41;12.57;;;4.50;;
74269;SDS011;62754;48.252;11.654;2023-06-22T13:34:07;10.93;;;4.47;;
74269;SDS011;62754;48.252;11.654;2023-06-22T13:36:35;11.88;;;4.20;;
74269;SDS011;62754;48.252;11.654;2023-06-22T13:39:00;17.00;;;4.68;;
74269;SDS011;62754;48.252;11.654;2023-06-22T13:41:29;12.10;;;4.78;;
74269;SDS011;62754;48.252;11.654;2023-06-22T13:43:57;10.70;;;4.30;;
74269;SDS011;62754;48.252;11.654;2023-06-22T13:46:22;8.32;;;4.10;;
74269;SDS011;62754;48.252;11.654;2023-06-22T13:48:48;14.50;;;4.78;;
74269;SDS011;62754;48.252;11.654;2023-06-22T13:51:16;9.25;;;4.35;;
74269;SDS011;62754;48.252;11.654;2023-06-22T13:53:47;12.40;;;4.65;;
74269;SDS011;62754;48.252;11.654;2023-06-22T13:56:12;10.05;;;4.47;;
74269;SDS011;62754;48.252;11.654;2023-06-22T13:58:38;9.50;;;4.75;;
74269;SDS011;62754;48.252;11.654;2023-06-22T14:01:04;11.20;;;4.68;;
74269;SDS011;62754;48.252;11.654;2023-06-22T14:03:29;12.48;;;4.75;;
74269;SDS011;62754;48.252;11.654;2023-06-22T14:06:00;14.40;;;4.55;;
74269;SDS011;62754;48.252;11.654;2023-06-22T14:08:26;10.90;;;4.47;;
74269;SDS011;62754;48.252;11.654;2023-06-22T14:10:52;10.63;;;4.35;;
74269;SDS011;62754;48.252;11.654;2023-06-22T14:13:17;12.25;;;4.35;;
74269;SDS011;62754;48.252;11.654;2023-06-22T14:15:46;11.20;;;4.10;;
74269;SDS011;62754;48.252;11.654;2023-06-22T14:18:14;16.33;;;5.03;;
74269;SDS011;62754;48.252;11.654;2023-06-22T14:20:45;9.18;;;3.97;;
74269;SDS011;62754;48.252;11.654;2023-06-22T14:23:11;12.38;;;4.85;;
74269;SDS011;62754;48.252;11.654;2023-06-22T14:25:36;11.10;;;4.10;;
74269;SDS011;62754;48.252;11.654;2023-06-22T14:28:07;10.93;;;4.32;;
74269;SDS011;62754;48.252;11.654;2023-06-22T14:30:33;12.02;;;4.53;;
74269;SDS011;62754;48.252;11.654;2023-06-22T14:33:01;10.95;;;4.65;;
74269;SDS011;62754;48.252;11.654;2023-06-22T14:35:29;10.68;;;4.10;;
74269;SDS011;62754;48.252;11.654;2023-06-22T14:37:57;14.13;;;4.38;;
74269;SDS011;62754;48.252;11.654;2023-06-22T14:40:23;10.18;;;4.15;;
74269;SDS011;62754;48.252;11.654;2023-06-22T14:42:51;14.15;;;4.57;;
74269;SDS011;62754;48.252;11.654;2023-06-22T14:45:17;9.70;;;3.80;;
74269;SDS011;62754;48.252;11.654;2023-06-22T14:47:45;10.20;;;4.32;;
74269;SDS011;62754;48.252;11.654;2023-06-22T14:50:13;10.00;;;4.13;;